Santa Cruz Airport
SBSC : now visible

Aeroporto :











RITROVATECI SU...

 
LOGIN :

Iscrizione | Disclaimer

   EN    FR    IT 

 









Sommario :    VFR   VFR Marginale   IFR   IFR Intensivo   IFR Molto Intensivo
Visibilità : 
Base nubi : 
>= 8 km
>= 3000ft
5 / 8 km
1000 / 3000 ft
1500m / 5 km
500 / 1000 ft
800 / 1500m
200 / 500 ft
< 800m
< 200 ft
Simboli :   Temporali  Nebbia  Neve Forte  Precipitazioni Forti  Vento > 20 kt






- Altitudine del aeroporto : 10 ft
- Codice IATA : SNZ


SBSC - Santa Cruz

ULTIMO METAR :
  • 290700Z 29003KT CAVOK 13/12 Q1021

METARs OBSOLETI :
  • 290600Z 33003KT CAVOK 14/13 Q1021
  • 290500Z 34004KT CAVOK 14/13 Q1022

TAF TAF SBSC
Valido dal 29 a 06 ore il 29 a 18 ore UTC


290300Z 2906/2918 01005KT CAVOK TN12/2907Z TX24/2917Z
PROB40 2909/2911 4000 BR
BECMG 2914/2916 12007KT RMK PEP
FIR SBCW / Sudamerica



MetMap, La meteo Aeronautica in un colpo d'occhio ! - Copyright ORBIFLY Dicembre 2007 - Disclaimer

ORBIFLY MET'MAP TEAM :

Programmazione e sviluppo : Alexandra Zaïnal
Concezione : Baudouin d'Aumeries
Aiuto per la programmazione : Marc-Olivier Méhu
Supporto tecnico e logistico : Manuel Goepfert
Aiuto per la traduzione : Arnaldo La Scala

Contatto : metmap@orbifly.com




FONTI E CREDITI :

   NOAA       Earth
Advisory